createdAt,value
2023-02-27T00:00:48.857Z,1021.39
2023-02-27T00:01:48.051Z,1021.42
2023-02-27T00:02:48.001Z,1021.47
2023-02-27T00:03:47.971Z,1021.44
2023-02-27T00:04:47.880Z,1021.46
2023-02-27T00:05:47.868Z,1021.45
2023-02-27T00:06:47.857Z,1021.45
2023-02-27T00:07:47.818Z,1021.45
2023-02-27T00:08:47.851Z,1021.41
2023-02-27T00:09:47.778Z,1021.42
2023-02-27T00:10:47.763Z,1021.44
2023-02-27T00:11:47.927Z,1021.40
2023-02-27T00:12:47.768Z,1021.46
2023-02-27T00:13:47.734Z,1021.48
2023-02-27T00:14:47.761Z,1021.43
2023-02-27T00:15:48.834Z,1021.42
2023-02-27T00:16:47.700Z,1021.48
2023-02-27T00:17:47.802Z,1021.43
2023-02-27T00:18:47.753Z,1021.43
2023-02-27T00:19:47.706Z,1021.43
2023-02-27T00:20:47.692Z,1021.42
2023-02-27T00:21:47.624Z,1021.37
2023-02-27T00:22:47.655Z,1021.40
2023-02-27T00:23:47.646Z,1021.41
2023-02-27T00:24:48.371Z,1021.42
2023-02-27T00:25:47.675Z,1021.43
2023-02-27T00:26:47.594Z,1021.40
2023-02-27T00:27:48.012Z,1021.40
2023-02-27T00:28:47.562Z,1021.38
2023-02-27T00:29:47.593Z,1021.39
2023-02-27T00:30:47.645Z,1021.41
2023-02-27T00:31:47.561Z,1021.37
2023-02-27T00:32:47.510Z,1021.37
2023-02-27T00:33:47.529Z,1021.38
2023-02-27T00:34:47.510Z,1021.36
2023-02-27T00:35:47.557Z,1021.36
2023-02-27T00:36:47.469Z,1021.38
2023-02-27T00:37:47.699Z,1021.39
2023-02-27T00:38:47.551Z,1021.38
2023-02-27T00:39:47.493Z,1021.40
2023-02-27T00:40:48.372Z,1021.46
2023-02-27T00:41:47.804Z,1021.44
2023-02-27T00:42:48.179Z,1021.38
2023-02-27T00:43:47.371Z,1021.39
2023-02-27T00:44:47.404Z,1021.42
2023-02-27T00:45:47.929Z,1021.42
2023-02-27T00:46:48.028Z,1021.45
2023-02-27T00:47:47.388Z,1021.44
2023-02-27T00:48:47.975Z,1021.44
2023-02-27T00:49:48.548Z,1021.45
2023-02-27T00:50:47.368Z,1021.43
2023-02-27T00:51:48.337Z,1021.46
2023-02-27T00:52:47.737Z,1021.50
2023-02-27T00:53:47.296Z,1021.45
2023-02-27T00:54:47.332Z,1021.47
2023-02-27T00:55:47.244Z,1021.47
2023-02-27T00:56:47.264Z,1021.43
2023-02-27T00:57:47.215Z,1021.43
2023-02-27T00:58:47.287Z,1021.43
2023-02-27T00:59:47.178Z,1021.44
2023-02-27T01:00:47.230Z,1021.42
2023-02-27T01:01:47.318Z,1021.45
2023-02-27T01:02:47.294Z,1021.43
2023-02-27T01:03:47.196Z,1021.44
2023-02-27T01:04:47.614Z,1021.43
2023-02-27T01:05:47.211Z,1021.44
2023-02-27T01:06:47.922Z,1021.38
2023-02-27T01:07:48.341Z,1021.41
2023-02-27T01:08:47.063Z,1021.44
2023-02-27T01:09:47.094Z,1021.41
2023-02-27T01:10:48.067Z,1021.32
2023-02-27T01:11:47.168Z,1021.36
2023-02-27T01:12:47.122Z,1021.37
2023-02-27T01:13:47.016Z,1021.37
2023-02-27T01:14:47.056Z,1021.37
2023-02-27T01:15:47.054Z,1021.33
2023-02-27T01:16:47.033Z,1021.33
2023-02-27T01:17:46.982Z,1021.37
2023-02-27T01:18:46.979Z,1021.33
2023-02-27T01:19:48.214Z,1021.33
2023-02-27T01:20:46.925Z,1021.34
2023-02-27T01:21:46.912Z,1021.34
2023-02-27T01:22:46.952Z,1021.36
2023-02-27T01:23:46.913Z,1021.31
2023-02-27T01:24:46.951Z,1021.28
2023-02-27T01:25:46.859Z,1021.27
2023-02-27T01:26:46.856Z,1021.30
2023-02-27T01:27:46.997Z,1021.23
2023-02-27T01:28:47.862Z,1021.25
2023-02-27T01:29:46.847Z,1021.25
2023-02-27T01:30:47.100Z,1021.23
2023-02-27T01:31:47.001Z,1021.26
2023-02-27T01:32:47.848Z,1021.27
2023-02-27T01:33:46.798Z,1021.26
2023-02-27T01:34:46.958Z,1021.25
2023-02-27T01:35:46.788Z,1021.25
2023-02-27T01:36:46.802Z,1021.23
2023-02-27T01:37:46.722Z,1021.16
2023-02-27T01:38:46.802Z,1021.21
2023-02-27T01:39:46.729Z,1021.25
2023-02-27T01:40:46.746Z,1021.25
2023-02-27T01:41:46.657Z,1021.23
2023-02-27T01:42:46.701Z,1021.20
2023-02-27T01:43:46.685Z,1021.24
2023-02-27T01:44:46.670Z,1021.27
2023-02-27T01:45:46.780Z,1021.25
2023-02-27T01:46:47.665Z,1021.21
2023-02-27T01:47:46.734Z,1021.19
2023-02-27T01:48:46.622Z,1021.20
2023-02-27T01:49:46.598Z,1021.21
2023-02-27T01:50:47.009Z,1021.17
2023-02-27T01:51:46.548Z,1021.24
2023-02-27T01:52:47.516Z,1021.24
2023-02-27T01:53:47.525Z,1021.28
2023-02-27T01:54:46.664Z,1021.26
2023-02-27T01:55:46.587Z,1021.25
2023-02-27T01:56:46.498Z,1021.25
2023-02-27T01:57:46.477Z,1021.25
2023-02-27T01:58:46.497Z,1021.25
2023-02-27T01:59:46.509Z,1021.28
2023-02-27T02:00:47.410Z,1021.26
2023-02-27T02:01:46.594Z,1021.26
2023-02-27T02:02:46.506Z,1021.28
2023-02-27T02:03:46.476Z,1021.29
2023-02-27T02:04:46.432Z,1021.32
2023-02-27T02:05:46.389Z,1021.32
2023-02-27T02:06:46.473Z,1021.32
2023-02-27T02:07:46.999Z,1021.30
2023-02-27T02:08:46.417Z,1021.32
2023-02-27T02:09:46.360Z,1021.27
2023-02-27T02:10:46.409Z,1021.34
2023-02-27T02:11:46.438Z,1021.34
2023-02-27T02:12:46.407Z,1021.29
2023-02-27T02:13:46.346Z,1021.30
2023-02-27T02:14:46.484Z,1021.32
2023-02-27T02:15:47.249Z,1021.33
2023-02-27T02:16:46.264Z,1021.34
2023-02-27T02:17:46.283Z,1021.31
2023-02-27T02:18:46.232Z,1021.33
2023-02-27T02:19:46.244Z,1021.35
2023-02-27T02:20:46.277Z,1021.33
2023-02-27T02:21:46.374Z,1021.30
2023-02-27T02:22:47.286Z,1021.29
2023-02-27T02:23:46.196Z,1021.28
2023-02-27T02:24:46.188Z,1021.27
2023-02-27T02:25:46.163Z,1021.28
2023-02-27T02:26:46.188Z,1021.31
2023-02-27T02:27:46.156Z,1021.32
2023-02-27T02:28:46.186Z,1021.32
2023-02-27T02:29:46.103Z,1021.31
2023-02-27T02:30:46.312Z,1021.34
2023-02-27T02:31:46.435Z,1021.33
2023-02-27T02:32:46.064Z,1021.29
2023-02-27T02:33:46.052Z,1021.31
2023-02-27T02:34:46.045Z,1021.30
2023-02-27T02:35:46.079Z,1021.29
2023-02-27T02:36:46.033Z,1021.30
2023-02-27T02:37:46.875Z,1021.29
2023-02-27T02:38:46.094Z,1021.28
2023-02-27T02:39:45.987Z,1021.26
2023-02-27T02:40:47.094Z,1021.29
2023-02-27T02:41:46.021Z,1021.30
2023-02-27T02:42:45.999Z,1021.27
2023-02-27T02:43:45.921Z,1021.29
2023-02-27T02:44:45.912Z,1021.30
2023-02-27T02:45:45.978Z,1021.25
2023-02-27T02:46:46.001Z,1021.19
2023-02-27T02:47:45.896Z,1021.17
2023-02-27T02:48:45.857Z,1021.21
2023-02-27T02:49:45.900Z,1021.26
2023-02-27T02:50:45.885Z,1021.22
2023-02-27T02:51:45.889Z,1021.23
2023-02-27T02:52:45.920Z,1021.21
2023-02-27T02:53:45.817Z,1021.19
2023-02-27T02:54:45.852Z,1021.23
2023-02-27T02:55:45.771Z,1021.20
2023-02-27T02:56:45.810Z,1021.22
2023-02-27T02:57:45.816Z,1021.25
2023-02-27T02:58:45.729Z,1021.25
2023-02-27T02:59:45.756Z,1021.24
2023-02-27T03:00:45.749Z,1021.22
2023-02-27T03:01:45.898Z,1021.21
2023-02-27T03:02:45.770Z,1021.19
2023-02-27T03:03:45.772Z,1021.24
2023-02-27T03:04:45.731Z,1021.26
2023-02-27T03:05:45.679Z,1021.26
2023-02-27T03:06:45.651Z,1021.26
2023-02-27T03:07:45.699Z,1021.26
2023-02-27T03:08:45.635Z,1021.25
2023-02-27T03:09:46.865Z,1021.28
2023-02-27T03:10:46.769Z,1021.28
2023-02-27T03:11:45.629Z,1021.28
2023-02-27T03:12:45.573Z,1021.29
2023-02-27T03:13:45.644Z,1021.34
2023-02-27T03:14:45.549Z,1021.35
2023-02-27T03:15:45.575Z,1021.37
2023-02-27T03:16:45.581Z,1021.35
2023-02-27T03:17:45.565Z,1021.38
2023-02-27T03:18:45.555Z,1021.45
2023-02-27T03:19:45.548Z,1021.40
2023-02-27T03:20:45.520Z,1021.38
2023-02-27T03:21:45.950Z,1021.38
2023-02-27T03:22:45.448Z,1021.39
2023-02-27T03:23:45.554Z,1021.36
2023-02-27T03:24:45.494Z,1021.36
2023-02-27T03:25:45.420Z,1021.39
2023-02-27T03:26:45.460Z,1021.36
2023-02-27T03:27:45.384Z,1021.32
2023-02-27T03:28:45.369Z,1021.42
2023-02-27T03:29:45.388Z,1021.45
2023-02-27T03:30:45.647Z,1021.44
2023-02-27T03:31:45.445Z,1021.45
2023-02-27T03:32:45.340Z,1021.43
2023-02-27T03:33:45.313Z,1021.43
2023-02-27T03:34:45.408Z,1021.37
2023-02-27T03:35:45.483Z,1021.40
2023-02-27T03:36:45.261Z,1021.45
2023-02-27T03:37:45.283Z,1021.44
2023-02-27T03:38:45.289Z,1021.46
2023-02-27T03:39:45.523Z,1021.46
2023-02-27T03:40:45.263Z,1021.44
2023-02-27T03:41:45.208Z,1021.43
2023-02-27T03:42:45.375Z,1021.47
2023-02-27T03:43:45.252Z,1021.49
2023-02-27T03:44:45.184Z,1021.49
2023-02-27T03:45:45.221Z,1021.48
2023-02-27T03:46:45.268Z,1021.47
2023-02-27T03:47:45.159Z,1021.47
2023-02-27T03:48:45.370Z,1021.47
2023-02-27T03:49:45.149Z,1021.48
2023-02-27T03:50:45.999Z,1021.48
2023-02-27T03:51:45.176Z,1021.45
2023-02-27T03:52:45.097Z,1021.47
2023-02-27T03:53:45.152Z,1021.50
2023-02-27T03:54:45.107Z,1021.48
2023-02-27T03:55:46.010Z,1021.52
2023-02-27T03:56:45.049Z,1021.48
2023-02-27T03:57:45.044Z,1021.52
2023-02-27T03:58:45.041Z,1021.49
2023-02-27T03:59:44.999Z,1021.51
2023-02-27T04:00:46.059Z,1021.48
2023-02-27T04:01:45.123Z,1021.44
2023-02-27T04:02:45.025Z,1021.48
2023-02-27T04:03:45.000Z,1021.49
2023-02-27T04:04:44.971Z,1021.46
2023-02-27T04:05:46.094Z,1021.41
2023-02-27T04:06:44.932Z,1021.44
2023-02-27T04:07:45.114Z,1021.46
2023-02-27T04:08:44.909Z,1021.42
2023-02-27T04:09:44.952Z,1021.47
2023-02-27T04:10:45.053Z,1021.53
2023-02-27T04:11:45.072Z,1021.55
2023-02-27T04:12:45.982Z,1021.55
2023-02-27T04:13:46.293Z,1021.52
2023-02-27T04:14:44.851Z,1021.56
2023-02-27T04:15:44.826Z,1021.59
2023-02-27T04:16:44.815Z,1021.56
2023-02-27T04:17:44.839Z,1021.61
2023-02-27T04:18:44.792Z,1021.61
2023-02-27T04:19:44.750Z,1021.58
2023-02-27T04:20:44.847Z,1021.62
2023-02-27T04:21:44.853Z,1021.63
2023-02-27T04:22:44.790Z,1021.61
2023-02-27T04:23:44.718Z,1021.59
2023-02-27T04:24:44.788Z,1021.66
2023-02-27T04:25:44.807Z,1021.67
2023-02-27T04:26:44.838Z,1021.68
2023-02-27T04:27:44.756Z,1021.68
2023-02-27T04:28:44.673Z,1021.67
2023-02-27T04:29:44.684Z,1021.72
2023-02-27T04:30:44.711Z,1021.67
2023-02-27T04:31:44.832Z,1021.69
2023-02-27T04:32:44.664Z,1021.70
2023-02-27T04:33:44.624Z,1021.70
2023-02-27T04:34:44.589Z,1021.75
2023-02-27T04:35:44.575Z,1021.75
2023-02-27T04:36:44.567Z,1021.75
2023-02-27T04:37:44.589Z,1021.75
2023-02-27T04:38:44.574Z,1021.74
2023-02-27T04:39:44.539Z,1021.77
2023-02-27T04:40:45.398Z,1021.77
2023-02-27T04:41:44.552Z,1021.73
2023-02-27T04:42:44.499Z,1021.76
2023-02-27T04:43:45.534Z,1021.79
2023-02-27T04:44:44.472Z,1021.78
2023-02-27T04:45:44.473Z,1021.79
2023-02-27T04:46:44.481Z,1021.81
2023-02-27T04:47:44.458Z,1021.80
2023-02-27T04:48:44.438Z,1021.79
2023-02-27T04:49:44.438Z,1021.87
2023-02-27T04:50:44.537Z,1021.85
2023-02-27T04:51:44.513Z,1021.84
2023-02-27T04:52:44.450Z,1021.93
2023-02-27T04:53:44.407Z,1021.89
2023-02-27T04:54:44.371Z,1021.93
2023-02-27T04:55:44.346Z,1021.97
2023-02-27T04:56:45.010Z,1021.92
2023-02-27T04:57:44.325Z,1021.89
2023-02-27T04:58:44.312Z,1021.89
2023-02-27T04:59:44.431Z,1021.89
2023-02-27T05:00:44.354Z,1021.88
2023-02-27T05:01:44.329Z,1021.90
2023-02-27T05:02:44.921Z,1021.89
2023-02-27T05:03:44.310Z,1021.89
2023-02-27T05:04:44.346Z,1021.95
2023-02-27T05:05:44.270Z,1021.92
2023-02-27T05:06:44.236Z,1021.95
2023-02-27T05:07:44.258Z,1021.97
2023-02-27T05:08:44.234Z,1021.95
2023-02-27T05:09:44.236Z,1021.96
2023-02-27T05:10:44.371Z,1021.93
2023-02-27T05:11:44.500Z,1021.93
2023-02-27T05:12:44.262Z,1021.96
2023-02-27T05:13:44.633Z,1021.92
2023-02-27T05:14:44.264Z,1021.92
2023-02-27T05:15:44.171Z,1021.91
2023-02-27T05:16:44.970Z,1021.90
2023-02-27T05:17:44.346Z,1021.85
2023-02-27T05:18:44.107Z,1021.89
2023-02-27T05:19:44.364Z,1021.87
2023-02-27T05:20:44.450Z,1021.91
2023-02-27T05:21:44.824Z,1021.91
2023-02-27T05:22:44.016Z,1021.92
2023-02-27T05:23:44.812Z,1021.92
2023-02-27T05:24:45.201Z,1021.96
2023-02-27T05:25:44.038Z,1022.02
2023-02-27T05:26:44.190Z,1022.02
2023-02-27T05:27:44.621Z,1022.01
2023-02-27T05:28:45.107Z,1022.02
2023-02-27T05:29:45.208Z,1022.04
2023-02-27T05:30:45.109Z,1022.00
2023-02-27T05:31:44.099Z,1022.01
2023-02-27T05:32:43.986Z,1021.99
2023-02-27T05:33:44.821Z,1022.03
2023-02-27T05:34:43.920Z,1021.99
2023-02-27T05:35:43.917Z,1022.01
2023-02-27T05:36:43.894Z,1021.99
2023-02-27T05:37:43.853Z,1022.02
2023-02-27T05:38:44.009Z,1022.02
2023-02-27T05:39:43.846Z,1022.04
2023-02-27T05:40:43.842Z,1022.09
2023-02-27T05:41:43.957Z,1022.07
2023-02-27T05:42:44.978Z,1022.06
2023-02-27T05:43:43.930Z,1022.08
2023-02-27T05:44:44.784Z,1022.07
2023-02-27T05:45:43.932Z,1022.06
2023-02-27T05:46:43.753Z,1022.07
2023-02-27T05:47:44.490Z,1022.07
2023-02-27T05:48:44.636Z,1022.03
2023-02-27T05:49:43.766Z,1022.06
2023-02-27T05:50:44.676Z,1022.02
2023-02-27T05:51:43.796Z,1022.05
2023-02-27T05:52:43.690Z,1022.10
2023-02-27T05:53:43.879Z,1022.13
2023-02-27T05:54:43.641Z,1022.13
2023-02-27T05:55:43.659Z,1022.14
2023-02-27T05:56:44.655Z,1022.16
2023-02-27T05:57:44.452Z,1022.16
2023-02-27T05:58:43.593Z,1022.18
2023-02-27T05:59:43.634Z,1022.15
2023-02-27T06:00:43.660Z,1022.21
2023-02-27T06:01:45.924Z,1022.24
2023-02-27T06:02:44.623Z,1022.26
2023-02-27T06:03:44.625Z,1022.28
2023-02-27T06:04:44.412Z,1022.22
2023-02-27T06:05:44.320Z,1022.22
2023-02-27T06:06:43.871Z,1022.23
2023-02-27T06:07:44.663Z,1022.22
2023-02-27T06:08:43.534Z,1022.28
2023-02-27T06:09:43.467Z,1022.30
2023-02-27T06:10:43.511Z,1022.30
2023-02-27T06:11:43.485Z,1022.29
2023-02-27T06:12:44.399Z,1022.33
2023-02-27T06:13:43.504Z,1022.33
2023-02-27T06:14:43.472Z,1022.35
2023-02-27T06:15:44.371Z,1022.36
2023-02-27T06:16:43.827Z,1022.41
2023-02-27T06:17:43.395Z,1022.38
2023-02-27T06:18:43.880Z,1022.47
2023-02-27T06:19:44.501Z,1022.40
2023-02-27T06:20:44.400Z,1022.43
2023-02-27T06:21:43.497Z,1022.44
2023-02-27T06:22:43.456Z,1022.46
2023-02-27T06:23:44.281Z,1022.46
2023-02-27T06:24:44.144Z,1022.50
2023-02-27T06:25:43.264Z,1022.55
2023-02-27T06:26:43.326Z,1022.58
2023-02-27T06:27:43.589Z,1022.59
2023-02-27T06:28:43.258Z,1022.61
2023-02-27T06:29:43.255Z,1022.63
2023-02-27T06:30:45.267Z,1022.66
2023-02-27T06:31:43.636Z,1022.62
2023-02-27T06:32:44.209Z,1022.59
2023-02-27T06:33:43.259Z,1022.60
2023-02-27T06:34:44.079Z,1022.63
2023-02-27T06:35:43.443Z,1022.65
2023-02-27T06:36:43.793Z,1022.68
2023-02-27T06:37:44.306Z,1022.70
2023-02-27T06:38:43.646Z,1022.71
2023-02-27T06:39:43.209Z,1022.73
2023-02-27T06:40:43.178Z,1022.75
2023-02-27T06:41:43.093Z,1022.78
2023-02-27T06:42:43.090Z,1022.80
2023-02-27T06:43:44.236Z,1022.75
2023-02-27T06:44:43.082Z,1022.79
2023-02-27T06:45:43.042Z,1022.76
2023-02-27T06:46:43.054Z,1022.80
2023-02-27T06:47:43.142Z,1022.86
2023-02-27T06:48:42.994Z,1022.86
2023-02-27T06:49:43.246Z,1022.84
2023-02-27T06:50:43.916Z,1022.83
2023-02-27T06:51:45.108Z,1022.88
2023-02-27T06:52:43.063Z,1022.85
2023-02-27T06:53:43.120Z,1022.83
2023-02-27T06:54:42.973Z,1022.78
2023-02-27T06:55:42.929Z,1022.75
2023-02-27T06:56:42.871Z,1022.78
2023-02-27T06:57:42.952Z,1022.76
2023-02-27T06:58:43.253Z,1022.77
2023-02-27T06:59:43.724Z,1022.73
2023-02-27T07:00:42.861Z,1022.80
2023-02-27T07:01:43.147Z,1022.80
2023-02-27T07:02:42.856Z,1022.78
2023-02-27T07:03:43.785Z,1022.76
2023-02-27T07:04:42.894Z,1022.82
2023-02-27T07:05:42.795Z,1022.80
2023-02-27T07:07:34.501Z,1022.78
2023-02-27T07:07:45.210Z,1022.85
2023-02-27T07:09:01.406Z,1022.82
2023-02-27T07:09:43.875Z,1022.86
2023-02-27T07:10:42.805Z,1022.91
2023-02-27T07:11:43.596Z,1022.94
2023-02-27T07:12:42.687Z,1022.93
2023-02-27T07:13:43.506Z,1022.94
2023-02-27T07:14:42.693Z,1022.95
2023-02-27T07:15:43.792Z,1022.98
2023-02-27T07:16:42.832Z,1022.96
2023-02-27T07:17:42.697Z,1022.95
2023-02-27T07:18:43.124Z,1022.98
2023-02-27T07:19:42.827Z,1023.03
2023-02-27T07:20:42.623Z,1023.01
2023-02-27T07:21:43.677Z,1023.04
2023-02-27T07:22:42.591Z,1023.03
2023-02-27T07:23:42.704Z,1023.08
2023-02-27T07:24:42.833Z,1023.03
2023-02-27T07:25:42.848Z,1023.04
2023-02-27T07:26:42.606Z,1023.03
2023-02-27T07:27:42.535Z,1023.02
2023-02-27T07:28:42.532Z,1023.00
2023-02-27T07:29:42.644Z,1023.00
2023-02-27T07:30:42.718Z,1023.08
2023-02-27T07:31:42.589Z,1023.08
2023-02-27T07:32:42.945Z,1023.05
2023-02-27T07:33:43.536Z,1023.07
2023-02-27T07:34:42.521Z,1023.13
2023-02-27T07:35:42.558Z,1023.10
2023-02-27T07:36:43.874Z,1023.13
2023-02-27T07:37:42.406Z,1023.15
2023-02-27T07:38:43.346Z,1023.19
2023-02-27T07:39:42.651Z,1023.15
2023-02-27T07:40:43.329Z,1023.17
2023-02-27T07:41:42.539Z,1023.16
2023-02-27T07:42:42.672Z,1023.12
2023-02-27T07:43:42.432Z,1023.14
2023-02-27T07:44:42.436Z,1023.13
2023-02-27T07:45:42.822Z,1023.15
2023-02-27T07:46:42.850Z,1023.18
2023-02-27T07:47:42.312Z,1023.19
2023-02-27T07:48:43.204Z,1023.20
2023-02-27T07:49:43.023Z,1023.18
2023-02-27T07:50:42.907Z,1023.17
2023-02-27T07:51:42.302Z,1023.15
2023-02-27T07:52:42.417Z,1023.21
2023-02-27T07:53:42.211Z,1023.25
2023-02-27T07:54:43.060Z,1023.31
2023-02-27T07:55:42.310Z,1023.39
2023-02-27T07:56:42.462Z,1023.40
2023-02-27T07:57:42.305Z,1023.42
2023-02-27T07:58:42.208Z,1023.36
2023-02-27T07:59:42.275Z,1023.47
2023-02-27T08:00:42.199Z,1023.41
2023-02-27T08:01:42.192Z,1023.37
2023-02-27T08:02:42.159Z,1023.39
2023-02-27T08:03:42.207Z,1023.43
2023-02-27T08:04:42.150Z,1023.39
2023-02-27T08:05:42.060Z,1023.39
2023-02-27T08:06:42.057Z,1023.35
2023-02-27T08:07:42.205Z,1023.34
2023-02-27T08:08:42.036Z,1023.26
2023-02-27T08:09:42.114Z,1023.31
2023-02-27T08:10:42.765Z,1023.25
2023-02-27T08:11:41.981Z,1023.28
2023-02-27T08:12:42.112Z,1023.26
2023-02-27T08:13:59.679Z,1023.29
2023-02-27T08:14:43.143Z,1023.27
2023-02-27T08:15:43.116Z,1023.25
2023-02-27T08:16:42.224Z,1023.26
2023-02-27T08:17:41.920Z,1023.26
2023-02-27T08:18:42.008Z,1023.26
2023-02-27T08:19:41.906Z,1023.30
2023-02-27T08:20:42.103Z,1023.32
2023-02-27T08:21:43.039Z,1023.34
2023-02-27T08:22:42.933Z,1023.35
2023-02-27T08:23:42.694Z,1023.34
2023-02-27T08:24:41.825Z,1023.33
2023-02-27T08:25:42.647Z,1023.33
2023-02-27T08:26:41.781Z,1023.33
2023-02-27T08:27:41.792Z,1023.30
2023-02-27T08:28:41.754Z,1023.32
2023-02-27T08:29:42.008Z,1023.32
2023-02-27T08:30:42.779Z,1023.30
2023-02-27T08:31:41.839Z,1023.31
2023-02-27T08:32:41.728Z,1023.33
2023-02-27T08:33:41.765Z,1023.37
2023-02-27T08:34:41.792Z,1023.34
2023-02-27T08:35:42.716Z,1023.31
2023-02-27T08:36:41.724Z,1023.36
2023-02-27T08:37:41.636Z,1023.36
2023-02-27T08:38:42.414Z,1023.42
2023-02-27T08:39:41.635Z,1023.46
2023-02-27T08:40:41.671Z,1023.43
2023-02-27T08:41:42.640Z,1023.42
2023-02-27T08:42:41.752Z,1023.47
2023-02-27T08:43:41.657Z,1023.49
2023-02-27T08:44:41.581Z,1023.51
2023-02-27T08:45:41.900Z,1023.54
2023-02-27T08:46:41.580Z,1023.55
2023-02-27T08:47:41.556Z,1023.53
2023-02-27T08:48:42.482Z,1023.54
2023-02-27T08:49:41.519Z,1023.54
2023-02-27T08:50:41.517Z,1023.52
2023-02-27T08:51:41.691Z,1023.54
2023-02-27T08:52:41.519Z,1023.53
2023-02-27T08:53:41.510Z,1023.52
2023-02-27T08:54:42.432Z,1023.57
2023-02-27T08:55:41.956Z,1023.58
2023-02-27T08:56:41.423Z,1023.57
2023-02-27T08:57:41.566Z,1023.58
2023-02-27T08:58:42.546Z,1023.57
2023-02-27T08:59:41.425Z,1023.60
2023-02-27T09:00:41.558Z,1023.56
2023-02-27T09:01:41.564Z,1023.57
2023-02-27T09:02:41.372Z,1023.51
2023-02-27T09:03:42.525Z,1023.50
2023-02-27T09:04:41.461Z,1023.52
2023-02-27T09:05:41.331Z,1023.47
2023-02-27T09:06:41.351Z,1023.50
2023-02-27T09:07:41.320Z,1023.51
2023-02-27T09:08:41.317Z,1023.50
2023-02-27T09:09:42.522Z,1023.50
2023-02-27T09:10:42.419Z,1023.54
2023-02-27T09:11:41.611Z,1023.46
2023-02-27T09:12:41.256Z,1023.45
2023-02-27T09:13:41.252Z,1023.43
2023-02-27T09:14:41.410Z,1023.47
2023-02-27T09:15:41.238Z,1023.45
2023-02-27T09:16:41.508Z,1023.43
2023-02-27T09:17:41.179Z,1023.46
2023-02-27T09:18:41.171Z,1023.36
2023-02-27T09:19:41.177Z,1023.41
2023-02-27T09:20:41.962Z,1023.40
2023-02-27T09:21:41.155Z,1023.40
2023-02-27T09:22:42.282Z,1023.43
2023-02-27T09:23:41.128Z,1023.45
2023-02-27T09:24:41.154Z,1023.48
2023-02-27T09:25:42.506Z,1023.46
2023-02-27T09:26:46.082Z,1023.43
2023-02-27T09:27:41.255Z,1023.50
2023-02-27T09:28:41.226Z,1023.48
2023-02-27T09:29:42.021Z,1023.51
2023-02-27T09:30:41.976Z,1023.49
2023-02-27T09:31:41.559Z,1023.48
2023-02-27T09:32:41.227Z,1023.49
2023-02-27T09:33:41.157Z,1023.49
2023-02-27T09:34:40.966Z,1023.51
2023-02-27T09:35:41.667Z,1023.48
2023-02-27T09:36:41.731Z,1023.53
2023-02-27T09:37:41.115Z,1023.52
2023-02-27T09:38:41.468Z,1023.56
2023-02-27T09:39:41.274Z,1023.54
2023-02-27T09:40:41.473Z,1023.53
2023-02-27T09:41:42.000Z,1023.53
2023-02-27T09:42:40.858Z,1023.56
2023-02-27T09:43:40.844Z,1023.51
2023-02-27T09:44:46.750Z,1023.53
2023-02-27T09:45:41.878Z,1023.51
2023-02-27T09:46:40.814Z,1023.53
2023-02-27T09:47:41.933Z,1023.54
2023-02-27T09:48:40.896Z,1023.50
2023-02-27T09:49:40.827Z,1023.59
2023-02-27T09:50:40.914Z,1023.59
2023-02-27T09:51:40.768Z,1023.61
2023-02-27T09:52:41.698Z,1023.63
2023-02-27T09:53:40.780Z,1023.59
2023-02-27T09:54:43.139Z,1023.57
2023-02-27T09:55:41.044Z,1023.56
2023-02-27T09:56:41.648Z,1023.57
2023-02-27T09:57:40.769Z,1023.59
2023-02-27T09:58:40.745Z,1023.58
2023-02-27T09:59:40.635Z,1023.61
2023-02-27T10:00:40.808Z,1023.56
2023-02-27T10:01:40.846Z,1023.58
2023-02-27T10:02:41.603Z,1023.59
2023-02-27T10:03:40.679Z,1023.61
2023-02-27T10:04:41.084Z,1023.64
2023-02-27T10:05:40.602Z,1023.68
2023-02-27T10:06:40.710Z,1023.63
2023-02-27T10:07:40.646Z,1023.63
2023-02-27T10:08:42.000Z,1023.58
2023-02-27T10:09:41.358Z,1023.61
2023-02-27T10:10:40.508Z,1023.66
2023-02-27T10:11:40.566Z,1023.61
2023-02-27T10:12:41.586Z,1023.63
2023-02-27T10:13:40.526Z,1023.63
2023-02-27T10:14:41.891Z,1023.60
2023-02-27T10:15:40.457Z,1023.64
2023-02-27T10:16:40.814Z,1023.66
2023-02-27T10:17:40.465Z,1023.61
2023-02-27T10:18:40.451Z,1023.67
2023-02-27T10:19:40.419Z,1023.64
2023-02-27T10:20:41.337Z,1023.68
2023-02-27T10:21:40.473Z,1023.70
2023-02-27T10:22:40.365Z,1023.70
2023-02-27T10:23:40.423Z,1023.75
2023-02-27T10:24:41.460Z,1023.72
2023-02-27T10:25:40.303Z,1023.75
2023-02-27T10:26:41.264Z,1023.80
2023-02-27T10:27:40.311Z,1023.78
2023-02-27T10:28:40.417Z,1023.80
2023-02-27T10:29:41.487Z,1023.76
2023-02-27T10:30:41.442Z,1023.80
2023-02-27T10:31:41.173Z,1023.80
2023-02-27T10:32:40.259Z,1023.79
2023-02-27T10:33:40.351Z,1023.82
2023-02-27T10:34:41.161Z,1023.82
2023-02-27T10:35:41.129Z,1023.80
2023-02-27T10:36:40.355Z,1023.81
2023-02-27T10:37:40.304Z,1023.78
2023-02-27T10:38:41.534Z,1023.83
2023-02-27T10:39:40.206Z,1023.84
2023-02-27T10:40:41.087Z,1023.83
2023-02-27T10:41:40.310Z,1023.86
2023-02-27T10:42:41.689Z,1023.85
2023-02-27T10:43:40.332Z,1023.82
2023-02-27T10:44:41.077Z,1023.82
2023-02-27T10:45:40.135Z,1023.82
2023-02-27T10:46:40.502Z,1023.82
2023-02-27T10:47:41.292Z,1023.80
2023-02-27T10:48:40.045Z,1023.84
2023-02-27T10:49:40.398Z,1023.76
2023-02-27T10:50:40.040Z,1023.79
2023-02-27T10:51:40.030Z,1023.78
2023-02-27T10:52:42.085Z,1023.83
2023-02-27T10:53:40.727Z,1023.81
2023-02-27T10:54:40.151Z,1023.84
2023-02-27T10:55:40.379Z,1023.86
2023-02-27T10:56:39.909Z,1023.79
2023-02-27T10:57:40.873Z,1023.81
2023-02-27T10:58:39.922Z,1023.75
2023-02-27T10:59:40.208Z,1023.78
2023-02-27T11:00:41.083Z,1023.80
2023-02-27T11:01:39.918Z,1023.82
2023-02-27T11:02:39.870Z,1023.82
2023-02-27T11:03:41.356Z,1023.79
2023-02-27T11:04:40.741Z,1023.80
2023-02-27T11:05:40.233Z,1023.87
2023-02-27T11:06:40.137Z,1023.87
2023-02-27T11:07:39.773Z,1023.79
2023-02-27T11:08:39.757Z,1023.73
2023-02-27T11:09:39.760Z,1023.76
2023-02-27T11:10:39.747Z,1023.76
2023-02-27T11:11:39.747Z,1023.71
2023-02-27T11:12:40.938Z,1023.76
2023-02-27T11:13:39.741Z,1023.76
2023-02-27T11:14:40.451Z,1023.72
2023-02-27T11:15:39.776Z,1023.72
2023-02-27T11:16:40.009Z,1023.70
2023-02-27T11:17:40.458Z,1023.70
2023-02-27T11:18:40.115Z,1023.67
2023-02-27T11:19:39.754Z,1023.65
2023-02-27T11:20:40.683Z,1023.65
2023-02-27T11:21:39.799Z,1023.63
2023-02-27T11:22:39.670Z,1023.62
2023-02-27T11:23:40.391Z,1023.58
2023-02-27T11:24:39.577Z,1023.62
2023-02-27T11:25:39.817Z,1023.61
2023-02-27T11:26:39.767Z,1023.58
2023-02-27T11:27:40.523Z,1023.60
2023-02-27T11:28:39.619Z,1023.58
2023-02-27T11:29:40.337Z,1023.60
2023-02-27T11:30:39.846Z,1023.56
2023-02-27T11:31:40.441Z,1023.53
2023-02-27T11:32:39.475Z,1023.56
2023-02-27T11:33:39.615Z,1023.49
2023-02-27T11:34:40.376Z,1023.56
2023-02-27T11:35:40.297Z,1023.61
2023-02-27T11:36:39.475Z,1023.56
2023-02-27T11:37:39.462Z,1023.57
2023-02-27T11:38:40.500Z,1023.46
2023-02-27T11:39:40.353Z,1023.51
2023-02-27T11:40:39.548Z,1023.51
2023-02-27T11:41:39.392Z,1023.56
2023-02-27T11:42:39.628Z,1023.55
2023-02-27T11:43:40.355Z,1023.49
2023-02-27T11:44:49.933Z,1023.52
2023-02-27T11:46:10.325Z,1023.55
2023-02-27T11:46:48.298Z,1023.49
2023-02-27T11:47:40.292Z,1023.49
2023-02-27T11:48:39.288Z,1023.56
2023-02-27T11:49:39.292Z,1023.58
2023-02-27T11:50:39.412Z,1023.58
2023-02-27T11:51:39.301Z,1023.55
2023-02-27T11:52:39.244Z,1023.59
2023-02-27T11:53:39.379Z,1023.63
2023-02-27T11:54:39.408Z,1023.64
2023-02-27T11:55:39.183Z,1023.63
2023-02-27T11:56:39.466Z,1023.62
2023-02-27T11:57:40.101Z,1023.63
2023-02-27T11:58:40.115Z,1023.60
2023-02-27T11:59:39.261Z,1023.60
2023-02-27T12:00:39.158Z,1023.60
2023-02-27T12:01:39.276Z,1023.62
2023-02-27T12:02:39.509Z,1023.66
2023-02-27T12:03:40.218Z,1023.64
2023-02-27T12:04:39.086Z,1023.64
2023-02-27T12:05:39.952Z,1023.60